createdAt,value
2022-08-12T00:02:04.132Z,24.40
2022-08-12T00:07:26.807Z,30.70
2022-08-12T00:12:47.325Z,29.33
2022-08-12T00:18:07.977Z,27.23
2022-08-12T00:23:28.599Z,20.70
2022-08-12T00:28:49.882Z,28.00
2022-08-12T00:34:10.494Z,23.03
2022-08-12T00:39:31.790Z,32.10
2022-08-12T00:44:34.218Z,42.33
2022-08-12T00:49:37.536Z,47.00
2022-08-12T00:54:42.717Z,55.60
2022-08-12T00:59:53.710Z,48.10
2022-08-12T01:05:18.979Z,50.13
2022-08-12T01:10:40.370Z,33.73
2022-08-12T01:15:45.860Z,30.53
2022-08-12T01:21:12.127Z,28.27
2022-08-12T01:26:25.210Z,26.77
2022-08-12T01:31:29.475Z,22.33
2022-08-12T01:36:47.908Z,20.07
2022-08-12T01:41:55.134Z,22.30
2022-08-12T01:47:09.793Z,26.00
2022-08-12T01:52:26.621Z,24.27
2022-08-12T01:57:58.403Z,31.40
2022-08-12T02:03:53.130Z,29.00
2022-08-12T02:09:17.931Z,25.20
2022-08-12T02:14:52.020Z,21.87
2022-08-12T02:20:03.604Z,21.30
2022-08-12T02:25:28.044Z,17.43
2022-08-12T02:30:41.255Z,18.17
2022-08-12T02:35:45.112Z,21.67
2022-08-12T02:40:48.039Z,22.07
2022-08-12T02:46:01.655Z,15.60
2022-08-12T02:51:09.723Z,12.63
2022-08-12T02:56:15.286Z,13.13
2022-08-12T03:01:23.881Z,14.35
2022-08-12T03:06:32.889Z,13.83
2022-08-12T03:11:51.025Z,14.95
2022-08-12T03:17:16.342Z,12.93
2022-08-12T03:22:41.030Z,16.47
2022-08-12T03:27:51.866Z,11.63
2022-08-12T03:32:57.017Z,9.20
2022-08-12T03:38:01.414Z,7.37
2022-08-12T03:43:29.741Z,7.23
2022-08-12T03:48:53.480Z,7.37
2022-08-12T03:54:14.318Z,6.03
2022-08-12T03:59:35.056Z,5.73
2022-08-12T04:04:37.269Z,4.90
2022-08-12T04:09:44.560Z,5.10
2022-08-12T04:14:47.209Z,4.90
2022-08-12T04:19:50.114Z,7.33
2022-08-12T04:24:54.082Z,5.67
2022-08-12T04:30:21.112Z,6.00
2022-08-12T04:35:20.727Z,9.57
2022-08-12T04:40:28.041Z,11.50
2022-08-12T04:45:35.962Z,12.17
2022-08-12T04:50:41.035Z,10.30
2022-08-12T04:55:45.863Z,11.53
2022-08-12T05:00:48.061Z,11.60
2022-08-12T05:05:50.362Z,9.00
2022-08-12T05:10:53.274Z,7.43
2022-08-12T05:16:03.899Z,5.67
2022-08-12T05:21:10.573Z,5.90
2022-08-12T05:26:12.740Z,4.37
2022-08-12T05:31:15.022Z,4.30
2022-08-12T05:36:37.282Z,3.80
2022-08-12T05:41:40.189Z,4.00
2022-08-12T05:46:43.243Z,4.23
2022-08-12T05:51:45.437Z,3.70
2022-08-12T05:56:48.618Z,2.67
2022-08-12T06:02:09.458Z,3.27
2022-08-12T06:07:59.847Z,3.80
2022-08-12T06:12:36.798Z,3.47
2022-08-12T06:17:38.997Z,3.17
2022-08-12T06:22:43.959Z,4.07
2022-08-12T06:28:07.255Z,2.90
2022-08-12T06:33:21.182Z,2.37
2022-08-12T06:38:29.456Z,2.23
2022-08-12T06:44:06.721Z,2.00
2022-08-12T06:48:59.516Z,1.70
2022-08-12T06:54:02.546Z,7.30
2022-08-12T06:59:06.087Z,3.00
2022-08-12T07:04:33.849Z,2.27
2022-08-12T07:10:04.858Z,1.97
2022-08-12T07:14:52.963Z,2.10
2022-08-12T07:19:59.182Z,2.00
2022-08-12T07:25:20.054Z,2.10
2022-08-12T07:30:23.411Z,1.98
2022-08-12T07:35:27.759Z,2.42
2022-08-12T07:40:31.675Z,2.08
2022-08-12T07:45:33.968Z,3.03
2022-08-12T07:50:36.150Z,2.17
2022-08-12T07:55:38.343Z,2.00
2022-08-12T08:00:40.646Z,2.30
2022-08-12T08:05:49.808Z,2.33
2022-08-12T08:11:24.186Z,2.00
2022-08-12T08:21:57.700Z,1.77
2022-08-12T08:27:01.286Z,1.83
2022-08-12T08:32:04.684Z,2.17
2022-08-12T08:37:10.828Z,2.45
2022-08-12T08:42:36.177Z,2.20
2022-08-12T08:47:44.274Z,1.90
2022-08-12T08:52:48.982Z,1.80
2022-08-12T08:57:54.399Z,1.92
2022-08-12T09:02:59.494Z,2.13
2022-08-12T09:08:13.102Z,2.25
2022-08-12T09:14:12.233Z,2.13
2022-08-12T09:24:20.102Z,2.33
2022-08-12T09:30:11.489Z,2.00
2022-08-12T09:34:46.880Z,2.10
2022-08-12T09:40:03.304Z,2.20
2022-08-12T09:46:06.087Z,2.22
2022-08-12T09:50:51.758Z,1.95
2022-08-12T09:56:06.955Z,1.92
2022-08-12T10:01:23.315Z,2.28
2022-08-12T10:06:32.203Z,2.10
2022-08-12T10:12:11.322Z,2.20
2022-08-12T10:17:15.720Z,1.98
2022-08-12T10:22:39.197Z,1.88
2022-08-12T10:28:09.878Z,2.15
2022-08-12T10:33:31.034Z,1.90
2022-08-12T10:38:41.543Z,2.13
2022-08-12T10:43:55.820Z,1.88
2022-08-12T10:49:06.229Z,2.03
2022-08-12T10:54:28.199Z,2.28
2022-08-12T11:00:29.368Z,2.08
2022-08-12T11:07:03.320Z,2.05
2022-08-12T11:10:26.516Z,2.13
2022-08-12T11:16:03.341Z,1.80
2022-08-12T11:20:52.153Z,2.05
2022-08-12T11:25:58.123Z,2.20
2022-08-12T11:31:01.318Z,2.13
2022-08-12T11:36:14.651Z,2.08
2022-08-12T11:41:18.133Z,3.53
2022-08-12T11:46:38.693Z,2.05
2022-08-12T11:51:41.045Z,2.25
2022-08-12T11:56:52.431Z,2.38
2022-08-12T12:02:05.596Z,2.10
2022-08-12T12:07:11.521Z,2.95
2022-08-12T12:12:15.035Z,2.35
2022-08-12T12:17:17.673Z,2.63
2022-08-12T12:22:23.359Z,2.20
2022-08-12T12:28:05.055Z,2.20
2022-08-12T12:33:17.683Z,2.50
2022-08-12T12:38:40.772Z,1.92
2022-08-12T12:43:56.556Z,1.98
2022-08-12T12:49:11.035Z,2.25
2022-08-12T12:54:13.469Z,2.05
2022-08-12T12:59:56.435Z,2.10
2022-08-12T13:04:41.266Z,2.03
2022-08-12T13:09:46.980Z,2.00
2022-08-12T13:14:52.184Z,2.63
2022-08-12T13:19:55.650Z,2.80
2022-08-12T13:25:00.019Z,2.97
2022-08-12T13:30:06.871Z,2.30
2022-08-12T13:35:19.686Z,2.30
2022-08-12T13:40:35.638Z,2.28
2022-08-12T13:45:41.946Z,3.42
2022-08-12T13:50:44.240Z,2.92
2022-08-12T13:56:01.388Z,2.70
2022-08-12T14:01:08.910Z,2.15
2022-08-12T14:06:15.377Z,4.83
2022-08-12T14:11:32.364Z,2.83
2022-08-12T14:16:49.370Z,7.15
2022-08-12T14:21:59.174Z,2.90
2022-08-12T14:27:02.862Z,3.15
2022-08-12T14:32:07.918Z,10.75
2022-08-12T14:37:58.197Z,7.78
2022-08-12T14:42:42.137Z,3.20
2022-08-12T14:47:58.620Z,4.90
2022-08-12T14:58:24.888Z,2.80
2022-08-12T15:03:46.634Z,3.15
2022-08-12T15:08:50.563Z,3.42
2022-08-12T15:13:56.163Z,4.78
2022-08-12T15:18:59.262Z,4.57
2022-08-12T15:24:08.889Z,3.88
2022-08-12T15:29:16.946Z,4.75
2022-08-12T15:34:19.249Z,3.88
2022-08-12T15:39:21.785Z,3.15
2022-08-12T15:44:42.147Z,2.90
2022-08-12T15:50:00.090Z,27.02
2022-08-12T15:55:05.982Z,12.32
2022-08-12T16:00:31.682Z,14.10
2022-08-12T16:06:11.777Z,12.20
2022-08-12T16:11:14.908Z,7.90
2022-08-12T16:16:24.180Z,14.55
2022-08-12T16:21:50.468Z,13.85
2022-08-12T16:26:51.252Z,11.57
2022-08-12T16:31:56.413Z,8.57
2022-08-12T16:37:02.325Z,5.95
2022-08-12T16:42:05.784Z,5.30
2022-08-12T16:47:08.110Z,6.05
2022-08-12T16:52:12.703Z,7.00
2022-08-12T16:57:15.289Z,6.13
2022-08-12T17:02:31.635Z,5.80
2022-08-12T17:07:43.088Z,4.70
2022-08-12T17:12:45.823Z,6.13
2022-08-12T17:18:39.073Z,5.07
2022-08-12T17:23:20.574Z,3.47
2022-08-12T17:28:25.536Z,3.20
2022-08-12T17:33:33.515Z,3.85
2022-08-12T17:38:38.270Z,4.28
2022-08-12T17:43:54.797Z,5.75
2022-08-12T17:49:06.918Z,5.03
2022-08-12T17:54:24.903Z,5.53
2022-08-12T17:59:48.466Z,4.68
2022-08-12T18:05:04.899Z,6.00
2022-08-12T18:10:08.647Z,10.43
2022-08-12T18:15:47.742Z,7.15
2022-08-12T18:20:44.654Z,6.38
2022-08-12T18:26:12.472Z,5.63
2022-08-12T18:31:24.184Z,6.20
2022-08-12T18:36:51.632Z,6.93
2022-08-12T18:41:54.494Z,6.00
2022-08-12T18:47:01.690Z,4.95
2022-08-12T18:52:11.848Z,7.25
2022-08-12T18:57:20.008Z,5.47
2022-08-12T19:02:40.363Z,6.20
2022-08-12T19:08:00.532Z,5.95
2022-08-12T19:13:25.121Z,6.85
2022-08-12T19:18:35.652Z,7.43
2022-08-12T19:23:42.283Z,10.00
2022-08-12T19:28:48.147Z,16.33
2022-08-12T19:34:14.601Z,23.33
2022-08-12T19:39:15.290Z,17.93
2022-08-12T19:44:27.259Z,13.90
2022-08-12T19:49:29.916Z,9.17
2022-08-12T19:54:56.249Z,8.53
2022-08-12T20:00:03.644Z,10.40
2022-08-12T20:06:08.022Z,10.18
2022-08-12T20:10:37.160Z,9.93
2022-08-12T20:15:44.558Z,8.23
2022-08-12T20:20:47.818Z,11.47
2022-08-12T20:25:58.620Z,17.50
2022-08-12T20:31:08.686Z,13.23
2022-08-12T20:36:41.053Z,10.07
2022-08-12T20:41:36.244Z,11.27
2022-08-12T20:46:38.826Z,9.10
2022-08-12T20:51:54.876Z,8.30
2022-08-12T20:56:58.243Z,10.87
2022-08-12T21:02:04.948Z,9.10
2022-08-12T21:07:10.343Z,7.90
2022-08-12T21:12:28.650Z,9.20
2022-08-12T21:18:08.269Z,13.73
2022-08-12T21:22:57.741Z,14.10
2022-08-12T21:28:01.271Z,14.93
2022-08-12T21:33:10.701Z,18.17
2022-08-12T21:38:16.949Z,17.17
2022-08-12T21:43:21.191Z,13.07
2022-08-12T21:48:25.571Z,15.60
2022-08-12T21:54:06.133Z,11.20
2022-08-12T21:58:50.135Z,14.10
2022-08-12T22:04:12.568Z,12.87
2022-08-12T22:09:15.756Z,10.80
2022-08-12T22:14:23.522Z,10.63
2022-08-12T22:19:26.675Z,9.33
2022-08-12T22:24:30.363Z,9.63
2022-08-12T22:29:52.614Z,8.93
2022-08-12T22:35:22.408Z,9.57
2022-08-12T22:40:26.582Z,9.63
2022-08-12T22:45:48.479Z,9.40
2022-08-12T22:50:59.770Z,9.07
2022-08-12T22:56:06.482Z,8.17
2022-08-12T23:01:13.771Z,7.37
2022-08-12T23:06:25.292Z,7.47
2022-08-12T23:11:33.635Z,5.87
2022-08-12T23:16:41.013Z,6.40
2022-08-12T23:22:05.065Z,5.27
2022-08-12T23:27:51.045Z,5.43
2022-08-12T23:32:59.853Z,5.07
2022-08-12T23:38:03.339Z,6.10
2022-08-12T23:43:05.953Z,7.30
2022-08-12T23:48:08.450Z,8.60
2022-08-12T23:53:32.370Z,8.10
2022-08-12T23:58:35.774Z,7.20
